Time;durP1;ratioP1;P1;durP2;ratioP2;P2;SDS_P1;SDS_P2;PMS_P1;PMS_P2;Temp;Humidity;BMP_temperature;BMP_pressure;BME280_temperature;BME280_humidity;BME280_pressure;Samples;Min_cycle;Max_cycle;Signal;HPM_P1;HPM_P2
2022/12/08 00:00:18;;;;;;;;;;;;;;;1.67;79.71;97939.31;7389516;19;19915;-71
2022/12/08 00:02:45;;;;;;;;;;;;;;;1.72;80.11;97936.38;7390848;19;19914;-71
2022/12/08 00:10:43;;;;;;;;;;;;;;;2.02;80.13;97927.25;7387704;19;19944;-71
2022/12/08 00:13:14;;;;;;;;;;;;;;;2.05;80.72;97932.22;7388800;19;20369;-71
2022/12/08 00:15:41;;;;;;;;;;;;;;;2.28;80.49;97931.38;7388556;19;19918;-71
2022/12/08 00:18:07;;;;;;;;;;;;;;;2.34;80.35;97919.63;7389183;19;19918;-71
2022/12/08 00:20:34;;;;;;;;;;;;;;;2.53;80.13;97925.16;7383904;19;20288;-71
2022/12/08 00:23:03;;;;;;;;;;;;;;;2.53;80.03;97924.31;7388983;19;19914;-71
2022/12/08 00:25:30;;;;;;;;;;;;;;;2.52;80.00;97918.25;7389957;19;19922;-71
2022/12/08 00:27:56;;;;;;;;;;;;;;;2.53;80.15;97917.31;7388982;19;19918;-71
2022/12/08 00:30:23;;;;;;;;;;;;;;;2.56;79.99;97904.00;7388352;19;19921;-71
2022/12/08 00:32:49;;;;;;;;;;;;;;;2.62;79.92;97907.94;7387810;19;21072;-71
2022/12/08 00:35:16;;;;;;;;;;;;;;;2.70;79.99;97908.19;7386501;19;20731;-71
2022/12/08 00:37:42;;;;;;;;;;;;;;;2.76;78.73;97904.25;7383266;19;19922;-71
2022/12/08 00:40:09;;;;;;;;;;;;;;;2.90;78.46;97900.56;7381619;19;19915;-71
2022/12/08 00:42:36;;;;;;;;;;;;;;;2.86;78.34;97899.97;7387820;19;19922;-71
2022/12/08 00:45:02;;;;;;;;;;;;;;;2.92;77.73;97899.50;7389056;19;19943;-71
2022/12/08 00:47:29;;;;;;;;;;;;;;;2.86;77.63;97899.97;7388302;19;19955;-70
2022/12/08 00:49:55;;;;;;;;;;;;;;;2.74;77.41;97899.16;7383159;19;19918;-71
2022/12/08 00:52:22;;;;;;;;;;;;;;;2.54;77.65;97898.06;7384799;19;19911;-71
2022/12/08 00:54:48;;;;;;;;;;;;;;;2.40;77.84;97899.13;7388913;19;19943;-71
2022/12/08 00:57:15;;;;;;;;;;;;;;;2.28;77.81;97896.59;7384387;19;20344;-71
2022/12/08 00:59:41;;;;;;;;;;;;;;;2.15;78.18;97897.50;7384193;19;22106;-71
2022/12/08 01:02:08;;;;;;;;;;;;;;;2.11;78.21;97892.66;7390079;19;19923;-71
2022/12/08 01:04:34;;;;;;;;;;;;;;;2.08;78.02;97887.66;7388102;19;20494;-71
2022/12/08 01:07:01;;;;;;;;;;;;;;;1.91;78.24;97888.91;7386531;19;20413;-71
2022/12/08 01:09:28;;;;;;;;;;;;;;;1.81;78.40;97887.91;7382265;19;19922;-70
2022/12/08 01:11:54;;;;;;;;;;;;;;;1.87;78.06;97879.63;7384778;19;19923;-71
2022/12/08 01:14:21;;;;;;;;;;;;;;;1.89;77.91;97893.41;7385889;19;19926;-71
2022/12/08 01:16:47;;;;;;;;;;;;;;;2.04;76.81;97889.66;7389517;19;19927;-70
2022/12/08 01:19:14;;;;;;;;;;;;;;;2.11;75.72;97898.72;7388457;19;19919;-71
2022/12/08 01:21:41;;;;;;;;;;;;;;;1.80;76.52;97899.31;7384202;19;19919;-71
2022/12/08 01:24:11;;;;;;;;;;;;;;;1.55;77.29;97895.84;7385804;19;19949;-71
2022/12/08 01:26:38;;;;;;;;;;;;;;;1.38;77.50;97898.88;7385253;19;20368;-71
2022/12/08 01:29:04;;;;;;;;;;;;;;;1.46;77.44;97892.16;7381946;19;19920;-71
2022/12/08 01:31:31;;;;;;;;;;;;;;;1.18;78.15;97908.09;7384886;19;19926;-71
2022/12/08 01:33:57;;;;;;;;;;;;;;;1.05;78.56;97908.13;7386873;19;19930;-71
2022/12/08 01:36:27;;;;;;;;;;;;;;;1.14;78.36;97906.66;7387938;19;19918;-71
2022/12/08 01:38:55;;;;;;;;;;;;;;;1.06;78.58;97908.03;7387077;19;20320;-70
2022/12/08 01:41:23;;;;;;;;;;;;;;;1.03;78.41;97907.41;7380435;19;20202;-71
2022/12/08 01:43:55;;;;;;;;;;;;;;;0.94;78.72;97901.06;7382663;19;19926;-71
2022/12/08 01:46:22;;;;;;;;;;;;;;;0.84;79.11;97902.63;7386296;19;19922;-70
2022/12/08 01:48:49;;;;;;;;;;;;;;;0.90;78.99;97897.00;7387145;19;19927;-70
2022/12/08 01:51:16;;;;;;;;;;;;;;;0.88;79.03;97891.91;7377691;19;19951;-70
2022/12/08 01:53:42;;;;;;;;;;;;;;;0.83;78.87;97894.00;7385024;19;19923;-71
2022/12/08 01:56:14;;;;;;;;;;;;;;;0.85;79.23;97880.88;7384929;19;20027;-71
2022/12/08 01:58:42;;;;;;;;;;;;;;;0.76;79.31;97882.31;7382594;19;19939;-71
2022/12/08 02:01:09;;;;;;;;;;;;;;;0.73;79.26;97882.53;7379973;19;19922;-70
2022/12/08 02:03:38;;;;;;;;;;;;;;;0.72;79.55;97887.88;7382263;19;20348;-71
2022/12/08 02:06:04;;;;;;;;;;;;;;;0.64;79.62;97878.00;7384410;19;19915;-70
2022/12/08 02:08:31;;;;;;;;;;;;;;;0.72;79.49;97880.06;7388598;19;19922;-70
2022/12/08 02:10:57;;;;;;;;;;;;;;;0.74;79.53;97878.16;7381685;19;20297;-70
2022/12/08 02:13:24;;;;;;;;;;;;;;;0.71;79.57;97871.44;7383459;19;19919;-70
2022/12/08 02:15:54;;;;;;;;;;;;;;;0.80;79.08;97859.53;7383020;19;19939;-71
2022/12/08 02:18:35;;;;;;;;;;;;;;;0.74;79.59;97859.94;7385399;19;20457;-70
2022/12/08 02:21:06;;;;;;;;;;;;;;;0.64;79.47;97863.19;7380984;19;19923;-70
2022/12/08 02:23:35;;;;;;;;;;;;;;;0.61;79.52;97862.59;7384463;19;19951;-70
2022/12/08 02:26:05;;;;;;;;;;;;;;;0.59;79.83;97859.25;7381952;19;19947;-70
2022/12/08 02:28:34;;;;;;;;;;;;;;;0.58;79.80;97854.97;7383419;19;20376;-70
2022/12/08 02:31:12;;;;;;;;;;;;;;;0.60;80.13;97853.09;7378742;19;19918;-71
2022/12/08 02:33:58;;;;;;;;;;;;;;;0.59;80.07;97849.66;7385014;19;20389;-70
2022/12/08 02:36:26;;;;;;;;;;;;;;;0.64;80.16;97846.75;7383497;19;19929;-70
2022/12/08 02:38:52;;;;;;;;;;;;;;;0.65;80.33;97841.41;7382342;19;19935;-70
2022/12/08 02:41:28;;;;;;;;;;;;;;;0.72;79.99;97847.03;7380202;19;20351;-70
2022/12/08 02:44:02;;;;;;;;;;;;;;;0.64;79.99;97852.78;7384670;19;19923;-70
2022/12/08 02:46:37;;;;;;;;;;;;;;;0.61;79.64;97846.97;7383462;19;19955;-70
2022/12/08 02:49:04;;;;;;;;;;;;;;;0.65;79.83;97844.03;7380631;19;19935;-70
2022/12/08 02:51:30;;;;;;;;;;;;;;;0.58;79.92;97849.75;7376589;19;19937;-70
2022/12/08 02:53:57;;;;;;;;;;;;;;;0.58;79.74;97847.16;7383714;19;19915;-70
2022/12/08 02:56:42;;;;;;;;;;;;;;;0.50;80.04;97839.91;7382576;19;19943;-70
2022/12/08 02:59:14;;;;;;;;;;;;;;;0.55;79.84;97847.38;7383263;19;20351;-70
2022/12/08 03:01:44;;;;;;;;;;;;;;;0.57;79.85;97832.50;7385954;19;20478;-70
2022/12/08 03:04:26;;;;;;;;;;;;;;;0.54;80.39;97833.53;7382390;19;19990;-71
2022/12/08 03:06:58;;;;;;;;;;;;;;;0.55;80.46;97831.75;7382324;19;19915;-70
2022/12/08 03:09:30;;;;;;;;;;;;;;;0.58;79.84;97831.53;7381417;19;19918;-71
2022/12/08 03:12:11;;;;;;;;;;;;;;;0.44;79.88;97833.31;7379343;19;19922;-70
2022/12/08 03:14:39;;;;;;;;;;;;;;;0.60;79.76;97832.28;7382283;19;19919;-70
2022/12/08 03:17:05;;;;;;;;;;;;;;;0.53;79.64;97828.44;7382442;19;19923;-71
2022/12/08 03:19:36;;;;;;;;;;;;;;;0.66;78.89;97824.06;7381924;19;19923;-70
2022/12/08 03:22:03;;;;;;;;;;;;;;;0.69;78.79;97815.19;7375001;19;19919;-70
2022/12/08 03:24:30;;;;;;;;;;;;;;;0.55;79.32;97810.94;7385421;19;19979;-70
2022/12/08 03:27:05;;;;;;;;;;;;;;;0.55;79.16;97809.16;7378649;19;19915;-71
2022/12/08 03:29:31;;;;;;;;;;;;;;;0.57;78.59;97807.28;7378960;19;19933;-70
2022/12/08 03:32:00;;;;;;;;;;;;;;;0.58;78.28;97810.72;7382140;19;20035;-71
2022/12/08 03:34:27;;;;;;;;;;;;;;;0.60;77.97;97801.03;7385263;19;19922;-71
2022/12/08 03:36:53;;;;;;;;;;;;;;;0.60;77.97;97798.44;7385169;19;19947;-71
2022/12/08 03:39:20;;;;;;;;;;;;;;;0.59;78.09;97807.19;7380723;19;19927;-70
2022/12/08 03:41:47;;;;;;;;;;;;;;;0.60;77.91;97804.47;7381340;19;20630;-70
2022/12/08 03:44:13;;;;;;;;;;;;;;;0.60;77.98;97804.47;7382743;19;19914;-70
2022/12/08 03:46:40;;;;;;;;;;;;;;;0.53;78.34;97795.44;7386349;19;20415;-70
2022/12/08 03:49:06;;;;;;;;;;;;;;;0.38;78.87;97794.72;7385014;19;19947;-71
2022/12/08 03:51:33;;;;;;;;;;;;;;;0.35;79.19;97794.94;7381964;19;19915;-70
2022/12/08 03:53:59;;;;;;;;;;;;;;;0.41;79.09;97789.31;7384624;19;19915;-70
2022/12/08 03:56:26;;;;;;;;;;;;;;;0.46;78.96;97788.16;7382421;19;19923;-71
2022/12/08 03:58:52;;;;;;;;;;;;;;;0.38;78.85;97776.50;7383142;19;19960;-70
2022/12/08 04:01:19;;;;;;;;;;;;;;;0.37;78.93;97782.66;7377187;19;19922;-70
2022/12/08 04:03:46;;;;;;;;;;;;;;;0.42;79.12;97774.53;7382632;19;19923;-70
2022/12/08 04:06:12;;;;;;;;;;;;;;;0.34;79.29;97777.69;7383016;19;20341;-70
2022/12/08 04:08:39;;;;;;;;;;;;;;;0.28;79.57;97772.88;7383256;19;19949;-70
2022/12/08 04:11:05;;;;;;;;;;;;;;;0.27;79.95;97771.22;7379125;19;22528;-70
2022/12/08 04:13:33;;;;;;;;;;;;;;;0.34;79.68;97772.47;7378053;19;19939;-70
2022/12/08 04:15:59;;;;;;;;;;;;;;;0.31;79.78;97774.44;7385211;19;19929;-71
2022/12/08 04:18:26;;;;;;;;;;;;;;;0.30;79.66;97773.63;7387102;19;19907;-70
2022/12/08 04:20:52;;;;;;;;;;;;;;;0.37;79.75;97768.81;7387275;19;19947;-69
2022/12/08 04:23:19;;;;;;;;;;;;;;;0.36;79.84;97765.38;7388433;19;19926;-70
2022/12/08 04:25:45;;;;;;;;;;;;;;;0.38;79.60;97768.72;7384561;19;19931;-69
2022/12/08 04:28:12;;;;;;;;;;;;;;;0.27;79.71;97763.44;7387759;19;19932;-70
2022/12/08 04:30:39;;;;;;;;;;;;;;;0.29;79.45;97771.97;7385210;19;20243;-70
2022/12/08 04:33:05;;;;;;;;;;;;;;;0.32;79.46;97774.34;7386379;19;19922;-70
2022/12/08 04:35:32;;;;;;;;;;;;;;;0.23;79.48;97772.38;7385519;19;20033;-70
2022/12/08 04:37:58;;;;;;;;;;;;;;;0.24;79.46;97775.78;7388065;19;19935;-70
2022/12/08 04:40:25;;;;;;;;;;;;;;;0.21;79.49;97772.50;7385107;19;20355;-70
2022/12/08 04:42:51;;;;;;;;;;;;;;;0.29;79.19;97768.50;7387247;19;19947;-70
2022/12/08 04:45:18;;;;;;;;;;;;;;;0.16;79.44;97766.78;7385057;19;19939;-70
2022/12/08 04:47:44;;;;;;;;;;;;;;;0.16;79.30;97771.16;7386998;19;19939;-70
2022/12/08 04:50:11;;;;;;;;;;;;;;;0.08;79.41;97761.28;7389040;19;20427;-71
2022/12/08 04:52:38;;;;;;;;;;;;;;;0.20;79.40;97756.97;7390416;19;19926;-70
2022/12/08 04:55:05;;;;;;;;;;;;;;;0.07;79.44;97756.16;7385989;19;19915;-70
2022/12/08 04:57:31;;;;;;;;;;;;;;;0.08;79.45;97752.59;7387869;19;19923;-70
2022/12/08 04:59:58;;;;;;;;;;;;;;;0.04;79.37;97761.56;7389966;19;19942;-71
2022/12/08 05:02:24;;;;;;;;;;;;;;;-0.04;79.78;97755.13;7388228;19;19923;-70
2022/12/08 05:04:51;;;;;;;;;;;;;;;0.01;79.63;97754.00;7388642;19;19923;-70
2022/12/08 05:07:17;;;;;;;;;;;;;;;0.02;79.88;97755.63;7386522;19;19923;-70
2022/12/08 05:09:44;;;;;;;;;;;;;;;0.01;79.68;97747.00;7387978;19;20277;-70
2022/12/08 05:12:10;;;;;;;;;;;;;;;-0.01;79.98;97754.91;7386626;19;20347;-70
2022/12/08 05:14:37;;;;;;;;;;;;;;;0.04;79.45;97753.78;7387752;19;19945;-70
2022/12/08 05:17:03;;;;;;;;;;;;;;;-0.02;79.24;97747.22;7386200;19;19923;-70
2022/12/08 05:19:35;;;;;;;;;;;;;;;-0.08;79.39;97745.03;7385843;19;19911;-70
2022/12/08 05:22:01;;;;;;;;;;;;;;;-0.10;79.53;97750.34;7387246;19;19919;-70
2022/12/08 05:24:28;;;;;;;;;;;;;;;-0.17;79.95;97740.47;7390444;19;19914;-70
2022/12/08 05:26:55;;;;;;;;;;;;;;;-0.14;79.86;97748.06;7382619;19;19911;-70
2022/12/08 05:29:21;;;;;;;;;;;;;;;-0.16;80.00;97745.53;7385623;19;20451;-70
2022/12/08 05:31:48;;;;;;;;;;;;;;;-0.14;79.72;97751.47;7385864;19;19923;-70
2022/12/08 05:34:14;;;;;;;;;;;;;;;-0.13;79.62;97747.97;7389242;19;19919;-70
2022/12/08 05:36:41;;;;;;;;;;;;;;;-0.17;79.89;97740.47;7384486;19;19930;-70
2022/12/08 05:39:08;;;;;;;;;;;;;;;-0.15;79.59;97749.00;7386105;19;20266;-69
2022/12/08 05:41:35;;;;;;;;;;;;;;;-0.19;79.64;97750.97;7385116;19;19927;-70
2022/12/08 05:44:01;;;;;;;;;;;;;;;-0.20;79.57;97751.91;7385499;19;19947;-70
2022/12/08 05:46:28;;;;;;;;;;;;;;;-0.24;79.84;97748.69;7384152;19;19917;-70
2022/12/08 05:48:54;;;;;;;;;;;;;;;-0.15;79.82;97744.63;7386621;19;19915;-70
2022/12/08 05:51:22;;;;;;;;;;;;;;;-0.17;79.90;97750.88;7383798;19;19919;-70
2022/12/08 05:53:49;;;;;;;;;;;;;;;-0.13;79.80;97745.38;7386464;19;19923;-69
2022/12/08 05:56:15;;;;;;;;;;;;;;;-0.19;79.37;97748.34;7386104;19;19952;-70
2022/12/08 05:58:42;;;;;;;;;;;;;;;-0.26;79.43;97742.75;7383514;19;20343;-70
2022/12/08 06:01:26;;;;;;;;;;;;;;;-0.23;79.32;97742.53;7376806;19;22964;-70
2022/12/08 06:03:53;;;;;;;;;;;;;;;-0.27;79.63;97735.88;7387355;19;19939;-70
2022/12/08 06:06:19;;;;;;;;;;;;;;;-0.25;79.74;97733.19;7388817;19;19919;-70
2022/12/08 06:08:46;;;;;;;;;;;;;;;-0.23;79.28;97736.53;7384780;19;20288;-70
2022/12/08 06:11:16;;;;;;;;;;;;;;;-0.25;79.56;97740.97;7380135;19;20269;-70
2022/12/08 06:13:43;;;;;;;;;;;;;;;-0.23;79.70;97742.53;7380684;19;19954;-70
2022/12/08 06:16:09;;;;;;;;;;;;;;;-0.20;79.42;97738.91;7385980;19;20359;-70
2022/12/08 06:18:36;;;;;;;;;;;;;;;-0.30;79.36;97740.47;7385407;19;20266;-70
2022/12/08 06:21:03;;;;;;;;;;;;;;;-0.33;79.11;97740.66;7384629;19;19939;-70
2022/12/08 06:23:29;;;;;;;;;;;;;;;-0.31;78.96;97739.63;7384851;19;19943;-70
2022/12/08 06:26:00;;;;;;;;;;;;;;;-0.43;79.18;97737.03;7382454;19;19918;-70
2022/12/08 06:28:27;;;;;;;;;;;;;;;-0.45;79.19;97740.56;7380506;19;19915;-70
2022/12/08 06:30:54;;;;;;;;;;;;;;;-0.51;79.51;97737.53;7378591;19;19953;-70
2022/12/08 06:33:20;;;;;;;;;;;;;;;-0.49;79.52;97738.28;7382812;19;19919;-70
2022/12/08 06:35:47;;;;;;;;;;;;;;;-0.53;79.80;97736.78;7386019;19;19922;-70
2022/12/08 06:38:13;;;;;;;;;;;;;;;-0.52;79.62;97747.09;7385043;19;20356;-70
2022/12/08 06:40:40;;;;;;;;;;;;;;;-0.43;79.25;97735.25;7383907;19;19914;-70
2022/12/08 06:43:06;;;;;;;;;;;;;;;-0.48;79.33;97743.34;7384657;19;20368;-70
2022/12/08 06:45:33;;;;;;;;;;;;;;;-0.43;79.36;97743.03;7385237;19;19943;-70
2022/12/08 06:48:00;;;;;;;;;;;;;;;-0.42;79.30;97744.72;7387100;19;19923;-70
2022/12/08 06:50:27;;;;;;;;;;;;;;;-0.51;79.22;97742.72;7382408;19;19923;-70
2022/12/08 06:52:54;;;;;;;;;;;;;;;-0.48;79.11;97748.53;7385645;19;20133;-70
2022/12/08 06:55:30;;;;;;;;;;;;;;;-0.49;79.41;97746.91;7386415;19;19952;-70
2022/12/08 06:58:17;;;;;;;;;;;;;;;-0.60;79.21;97749.38;7384980;19;19921;-70
2022/12/08 07:00:43;;;;;;;;;;;;;;;-0.60;79.40;97748.56;7382187;19;20781;-70
2022/12/08 07:03:10;;;;;;;;;;;;;;;-0.65;79.26;97750.63;7385019;19;20283;-70
2022/12/08 07:05:37;;;;;;;;;;;;;;;-0.72;79.55;97747.56;7386138;19;19915;-70
2022/12/08 07:08:04;;;;;;;;;;;;;;;-0.62;79.13;97753.00;7385996;19;20343;-70
2022/12/08 07:10:31;;;;;;;;;;;;;;;-0.60;79.46;97748.56;7383395;19;19932;-70
2022/12/08 07:12:57;;;;;;;;;;;;;;;-0.65;79.67;97750.63;7382328;19;20597;-70
2022/12/08 07:15:24;;;;;;;;;;;;;;;-0.59;79.30;97755.41;7382678;19;19950;-70
2022/12/08 07:17:50;;;;;;;;;;;;;;;-0.65;79.30;97753.22;7383572;19;19951;-70
2022/12/08 07:20:24;;;;;;;;;;;;;;;-0.66;80.03;97749.75;7381533;19;19923;-70
2022/12/08 07:22:51;;;;;;;;;;;;;;;-0.62;79.79;97750.41;7383869;19;19947;-70
2022/12/08 07:25:18;;;;;;;;;;;;;;;-0.60;79.88;97754.56;7379424;19;19943;-70
2022/12/08 07:27:44;;;;;;;;;;;;;;;-0.62;80.03;97758.22;7386320;19;19939;-70
2022/12/08 07:30:11;;;;;;;;;;;;;;;-0.54;80.17;97754.16;7383744;19;19947;-70
2022/12/08 07:32:38;;;;;;;;;;;;;;;-0.43;79.94;97757.81;7380478;19;19915;-70
2022/12/08 07:35:05;;;;;;;;;;;;;;;-0.37;80.21;97753.06;7384059;19;19943;-70
2022/12/08 07:37:32;;;;;;;;;;;;;;;-0.27;79.98;97755.84;7384267;19;19947;-70
2022/12/08 07:39:58;;;;;;;;;;;;;;;-0.19;79.67;97757.94;7385635;19;19919;-70
2022/12/08 07:42:25;;;;;;;;;;;;;;;-0.14;79.82;97748.88;7384666;19;20379;-70
2022/12/08 07:44:51;;;;;;;;;;;;;;;-0.15;79.66;97755.03;7381918;19;19922;-70
2022/12/08 07:47:18;;;;;;;;;;;;;;;-0.10;79.31;97758.16;7386148;19;19947;-70
2022/12/08 07:49:44;;;;;;;;;;;;;;;-0.05;78.85;97752.66;7380598;19;20371;-70
2022/12/08 07:52:11;;;;;;;;;;;;;;;0.04;78.43;97746.78;7386361;19;19934;-70
2022/12/08 07:54:37;;;;;;;;;;;;;;;-0.01;78.47;97754.09;7389823;19;19919;-70
2022/12/08 07:57:04;;;;;;;;;;;;;;;0.02;78.83;97740.03;7392288;19;20252;-69
2022/12/08 07:59:31;;;;;;;;;;;;;;;-0.02;79.22;97748.06;7389998;19;19955;-70
2022/12/08 08:01:58;;;;;;;;;;;;;;;0.12;79.14;97741.91;7392934;19;19943;-69
2022/12/08 08:04:44;;;;;;;;;;;;;;;0.15;78.65;97739.06;7390107;19;20033;-70
2022/12/08 08:07:11;;;;;;;;;;;;;;;0.15;78.41;97741.69;7387535;19;19919;-70
2022/12/08 08:09:37;;;;;;;;;;;;;;;0.12;78.23;97746.28;7389539;19;19918;-70
2022/12/08 08:12:04;;;;;;;;;;;;;;;-0.12;78.73;97741.81;7390423;19;20244;-70
2022/12/08 08:14:51;;;;;;;;;;;;;;;-0.27;79.23;97740.25;7389481;19;19918;-70
2022/12/08 08:17:17;;;;;;;;;;;;;;;-0.24;79.33;97737.44;7391154;19;19918;-70
2022/12/08 08:19:44;;;;;;;;;;;;;;;-0.19;79.58;97743.16;7392013;19;19918;-70
2022/12/08 08:22:11;;;;;;;;;;;;;;;-0.01;79.28;97734.09;7388550;19;19951;-70
2022/12/08 08:24:37;;;;;;;;;;;;;;;0.08;79.16;97729.19;7385001;19;20455;-70
2022/12/08 08:27:10;;;;;;;;;;;;;;;0.24;79.54;97729.81;7389758;19;19947;-70
2022/12/08 08:29:36;;;;;;;;;;;;;;;0.21;79.35;97743.03;7390719;19;19914;-70
2022/12/08 08:32:03;;;;;;;;;;;;;;;0.40;79.41;97732.19;7389795;19;19918;-70
2022/12/08 08:34:29;;;;;;;;;;;;;;;0.50;79.10;97724.53;7392044;19;19922;-70
2022/12/08 08:36:56;;;;;;;;;;;;;;;0.61;79.09;97735.03;7386355;19;19922;-70
2022/12/08 08:39:23;;;;;;;;;;;;;;;0.60;78.56;97735.97;7387042;19;19982;-70
2022/12/08 08:41:49;;;;;;;;;;;;;;;0.67;78.52;97725.97;7384547;19;19941;-70
2022/12/08 08:44:16;;;;;;;;;;;;;;;0.75;78.45;97734.88;7385591;19;19922;-70
2022/12/08 08:46:42;;;;;;;;;;;;;;;0.82;78.53;97735.28;7389308;19;20364;-70
2022/12/08 08:49:09;;;;;;;;;;;;;;;0.88;78.17;97734.81;7391156;19;19926;-70
2022/12/08 08:51:35;;;;;;;;;;;;;;;0.93;77.81;97734.50;7388903;19;19955;-71
2022/12/08 08:54:02;;;;;;;;;;;;;;;0.93;78.11;97732.72;7389016;19;19947;-71
2022/12/08 08:56:28;;;;;;;;;;;;;;;0.96;77.94;97736.88;7383704;19;20297;-70
2022/12/08 08:58:55;;;;;;;;;;;;;;;1.06;77.88;97732.66;7386684;19;20363;-71
2022/12/08 09:01:23;;;;;;;;;;;;;;;1.09;77.82;97727.22;7384498;19;19940;-70
2022/12/08 09:03:50;;;;;;;;;;;;;;;1.16;77.85;97725.84;7392080;19;19925;-70
2022/12/08 09:06:17;;;;;;;;;;;;;;;1.16;78.01;97728.44;7388686;19;19947;-70
2022/12/08 09:08:43;;;;;;;;;;;;;;;1.03;77.89;97728.50;7390887;19;19939;-70
2022/12/08 09:11:10;;;;;;;;;;;;;;;1.15;78.19;97728.53;7383784;19;19946;-70
2022/12/08 09:13:36;;;;;;;;;;;;;;;1.22;77.66;97732.38;7379220;19;19915;-70
2022/12/08 09:16:04;;;;;;;;;;;;;;;1.37;77.74;97725.16;7389410;19;20368;-69
2022/12/08 09:18:31;;;;;;;;;;;;;;;1.34;77.36;97721.03;7391002;19;19926;-70
2022/12/08 09:21:04;;;;;;;;;;;;;;;1.41;77.73;97721.41;7386471;19;19947;-69
2022/12/08 09:23:31;;;;;;;;;;;;;;;1.42;77.52;97723.91;7382404;19;19914;-70
2022/12/08 09:26:01;;;;;;;;;;;;;;;1.63;77.60;97715.41;7385951;19;19918;-70
2022/12/08 09:28:28;;;;;;;;;;;;;;;1.73;77.36;97705.94;7387256;19;19951;-70
2022/12/08 09:30:54;;;;;;;;;;;;;;;1.68;77.42;97711.50;7384832;19;19915;-70
2022/12/08 09:33:21;;;;;;;;;;;;;;;1.75;77.27;97704.06;7388710;19;19930;-70
2022/12/08 09:35:48;;;;;;;;;;;;;;;1.80;77.15;97720.19;7389651;19;19919;-70
2022/12/08 09:38:14;;;;;;;;;;;;;;;1.84;76.87;97708.53;7390336;19;19939;-70
2022/12/08 09:40:51;;;;;;;;;;;;;;;1.89;76.18;97716.03;7386551;19;20299;-70
2022/12/08 09:43:20;;;;;;;;;;;;;;;1.96;76.53;97706.78;7379141;19;19951;-70
2022/12/08 09:45:46;;;;;;;;;;;;;;;2.10;76.58;97709.16;7385180;19;20269;-70
2022/12/08 09:48:18;;;;;;;;;;;;;;;2.40;75.74;97705.13;7386820;19;19930;-70
2022/12/08 09:50:46;;;;;;;;;;;;;;;2.40;75.46;97705.13;7385749;19;19971;-70
2022/12/08 09:53:22;;;;;;;;;;;;;;;2.38;75.79;97702.63;7388021;19;19921;-70
2022/12/08 09:55:52;;;;;;;;;;;;;;;2.58;75.43;97700.19;7387069;19;19923;-70
2022/12/08 09:58:19;;;;;;;;;;;;;;;2.71;75.04;97690.44;7388246;19;19952;-70
2022/12/08 10:00:45;;;;;;;;;;;;;;;2.70;74.32;97695.78;7382538;19;20034;-70
2022/12/08 10:03:12;;;;;;;;;;;;;;;2.55;74.10;97687.38;7384073;19;19963;-70
2022/12/08 10:05:46;;;;;;;;;;;;;;;2.51;73.92;97684.19;7388091;19;19914;-70
2022/12/08 10:08:20;;;;;;;;;;;;;;;2.70;73.92;97687.97;7391214;19;19919;-70
2022/12/08 10:10:50;;;;;;;;;;;;;;;2.87;73.77;97682.22;7387415;19;19911;-70
2022/12/08 10:13:16;;;;;;;;;;;;;;;3.07;73.22;97677.97;7383007;19;20343;-71
2022/12/08 10:15:57;;;;;;;;;;;;;;;3.13;73.00;97674.81;7384640;19;19926;-71
2022/12/08 10:18:26;;;;;;;;;;;;;;;3.29;72.52;97672.63;7381020;19;19933;-71
2022/12/08 10:20:53;;;;;;;;;;;;;;;3.30;72.20;97665.63;7378747;19;19940;-70
2022/12/08 10:23:19;;;;;;;;;;;;;;;3.29;71.87;97666.53;7382875;19;19919;-71
2022/12/08 10:25:47;;;;;;;;;;;;;;;3.29;72.01;97663.94;7385919;19;19939;-70
2022/12/08 10:28:13;;;;;;;;;;;;;;;3.51;71.94;97661.19;7384689;19;19918;-70
2022/12/08 10:30:40;;;;;;;;;;;;;;;3.68;71.37;97666.78;7383656;19;19922;-70
2022/12/08 10:33:14;;;;;;;;;;;;;;;3.96;71.06;97660.88;7383208;19;19937;-70
2022/12/08 10:35:43;;;;;;;;;;;;;;;3.88;70.31;97652.03;7381574;19;19926;-70
2022/12/08 10:38:25;;;;;;;;;;;;;;;4.21;69.46;97652.69;7386428;19;19936;-70
2022/12/08 10:40:52;;;;;;;;;;;;;;;4.33;68.74;97646.38;7381738;19;19943;-70
2022/12/08 10:43:20;;;;;;;;;;;;;;;4.48;68.61;97652.06;7381422;19;19915;-70
2022/12/08 10:45:47;;;;;;;;;;;;;;;4.69;67.36;97644.94;7384203;19;19930;-70
2022/12/08 10:48:15;;;;;;;;;;;;;;;4.86;67.15;97647.81;7389035;19;19923;-70
2022/12/08 10:50:51;;;;;;;;;;;;;;;4.95;67.19;97641.75;7381771;19;19948;-70
2022/12/08 10:53:17;;;;;;;;;;;;;;;4.87;66.00;97639.00;7379883;19;19940;-70
2022/12/08 10:55:45;;;;;;;;;;;;;;;5.12;65.68;97635.00;7386267;19;20242;-70
2022/12/08 10:58:22;;;;;;;;;;;;;;;5.36;66.59;97627.50;7386078;19;19922;-70
2022/12/08 11:00:53;;;;;;;;;;;;;;;5.52;65.54;97621.66;7380712;19;19982;-71
2022/12/08 11:03:27;;;;;;;;;;;;;;;5.55;64.98;97618.75;7382842;19;19979;-70
2022/12/08 11:05:55;;;;;;;;;;;;;;;5.45;63.96;97616.16;7384420;19;19923;-70
2022/12/08 11:08:21;;;;;;;;;;;;;;;5.35;63.55;97607.50;7384765;19;19923;-70
2022/12/08 11:10:48;;;;;;;;;;;;;;;5.18;64.27;97611.66;7377067;19;19922;-70
2022/12/08 11:13:17;;;;;;;;;;;;;;;5.23;63.72;97601.56;7382528;19;19918;-71
2022/12/08 11:15:43;;;;;;;;;;;;;;;5.22;64.05;97602.53;7384291;19;19918;-71
2022/12/08 11:18:29;;;;;;;;;;;;;;;5.21;63.45;97595.66;7388076;19;19959;-70
2022/12/08 11:20:58;;;;;;;;;;;;;;;5.18;64.51;97587.22;7383279;19;19914;-70
2022/12/08 11:23:25;;;;;;;;;;;;;;;5.23;65.25;97588.44;7384909;19;19911;-70
2022/12/08 11:25:52;;;;;;;;;;;;;;;5.33;63.64;97583.19;7390518;19;19927;-70
2022/12/08 11:28:21;;;;;;;;;;;;;;;5.25;63.58;97583.06;7391345;19;19951;-70
2022/12/08 11:30:49;;;;;;;;;;;;;;;5.25;63.68;97583.91;7389938;19;19929;-70
2022/12/08 11:33:25;;;;;;;;;;;;;;;5.25;64.06;97573.41;7390695;19;19926;-70
2022/12/08 11:35:56;;;;;;;;;;;;;;;5.22;64.63;97571.06;7390139;19;20347;-70
2022/12/08 11:38:23;;;;;;;;;;;;;;;5.18;63.36;97572.31;7393311;19;20285;-71
2022/12/08 11:40:54;;;;;;;;;;;;;;;5.12;63.42;97580.75;7386761;19;19964;-71
2022/12/08 11:43:33;;;;;;;;;;;;;;;5.26;63.56;97568.97;7388056;19;19919;-70
2022/12/08 11:46:23;;;;;;;;;;;;;;;5.27;64.77;97563.59;7391119;19;19926;-70
2022/12/08 11:48:52;;;;;;;;;;;;;;;5.20;65.45;97564.31;7391150;19;20355;-70
2022/12/08 11:51:26;;;;;;;;;;;;;;;5.20;64.84;97556.44;7385653;19;19930;-71
2022/12/08 11:53:55;;;;;;;;;;;;;;;5.16;63.87;97561.16;7390944;19;19922;-71
2022/12/08 11:56:35;;;;;;;;;;;;;;;5.24;63.19;97560.44;7384964;19;19947;-70
2022/12/08 11:59:08;;;;;;;;;;;;;;;5.15;62.31;97559.50;7385946;19;19922;-71
2022/12/08 12:01:35;;;;;;;;;;;;;;;5.23;63.22;97558.78;7389618;19;19963;-71
2022/12/08 12:04:11;;;;;;;;;;;;;;;5.27;62.75;97558.38;7391592;19;19918;-71
2022/12/08 12:06:56;;;;;;;;;;;;;;;5.33;62.77;97558.75;7391663;19;19935;-71
2022/12/08 12:09:41;;;;;;;;;;;;;;;5.22;62.67;97557.97;7392613;19;19932;-70
2022/12/08 12:12:14;;;;;;;;;;;;;;;5.33;61.87;97556.97;7389065;19;19943;-71
2022/12/08 12:14:44;;;;;;;;;;;;;;;5.35;62.85;97554.22;7383006;19;19950;-71
2022/12/08 12:17:30;;;;;;;;;;;;;;;5.22;63.31;97544.84;7386884;19;19943;-71
2022/12/08 12:19:57;;;;;;;;;;;;;;;5.27;63.17;97550.50;7387971;19;20305;-71
2022/12/08 12:22:24;;;;;;;;;;;;;;;5.43;62.61;97549.88;7386766;19;20351;-70
2022/12/08 12:24:51;;;;;;;;;;;;;;;5.42;61.94;97544.78;7386159;19;20351;-70
2022/12/08 12:27:17;;;;;;;;;;;;;;;5.41;62.35;97543.13;7388562;19;19918;-71
2022/12/08 12:29:45;;;;;;;;;;;;;;;5.35;62.28;97541.09;7389274;19;20363;-71
2022/12/08 12:32:19;;;;;;;;;;;;;;;5.42;61.11;97537.72;7386102;19;19915;-70
2022/12/08 12:34:47;;;;;;;;;;;;;;;5.46;61.49;97535.66;7383623;19;19949;-71
2022/12/08 12:37:14;;;;;;;;;;;;;;;5.61;61.03;97536.00;7382581;19;20340;-70
2022/12/08 12:39:48;;;;;;;;;;;;;;;5.45;61.43;97532.22;7388848;19;19919;-70
2022/12/08 12:42:34;;;;;;;;;;;;;;;5.62;62.67;97525.38;7386314;19;19915;-70
2022/12/08 12:45:24;;;;;;;;;;;;;;;5.64;60.35;97530.47;7384822;19;20339;-70
2022/12/08 12:48:11;;;;;;;;;;;;;;;5.48;61.00;97524.06;7388881;19;19923;-70
2022/12/08 12:50:38;;;;;;;;;;;;;;;5.42;61.70;97513.31;7384395;19;19933;-70
2022/12/08 12:53:05;;;;;;;;;;;;;;;5.50;60.81;97514.25;7387164;19;19939;-71
2022/12/08 12:55:45;;;;;;;;;;;;;;;5.61;61.84;97513.22;7388009;19;19919;-71
2022/12/08 12:58:22;;;;;;;;;;;;;;;5.74;59.96;97502.41;7390162;19;19935;-70
2022/12/08 13:00:48;;;;;;;;;;;;;;;5.73;60.96;97498.09;7384234;19;20367;-70
2022/12/08 13:03:15;;;;;;;;;;;;;;;5.72;60.06;97502.53;7386312;19;19930;-70
2022/12/08 13:05:47;;;;;;;;;;;;;;;5.73;59.93;97501.53;7389728;19;20608;-71
2022/12/08 13:08:17;;;;;;;;;;;;;;;5.78;61.04;97502.91;7386754;19;20332;-70